Time;durP1;ratioP1;P1;durP2;ratioP2;P2;SDS_P1;SDS_P2;PMS_P1;PMS_P2;Temp;Humidity;BMP_temperature;BMP_pressure;BME280_temperature;BME280_humidity;BME280_pressure;Samples;Min_cycle;Max_cycle;Signal;HPM_P1;HPM_P2
2023/03/15 00:00:46;;;;;;;5.00;1.90;;;;;;;;;;5112642;28;20043;-74
2023/03/15 00:03:13;;;;;;;3.85;1.80;;;;;;;;;;5112646;28;20079;-74
2023/03/15 00:05:43;;;;;;;4.53;2.05;;;;;;;;;;5112505;28;20031;-74
2023/03/15 00:08:11;;;;;;;6.78;1.90;;;;;;;;;;5100577;28;20463;-73
2023/03/15 00:10:40;;;;;;;3.65;1.83;;;;;;;;;;5100386;28;20047;-74
2023/03/15 00:13:06;;;;;;;6.20;2.47;;;;;;;;;;5111411;28;20044;-73
2023/03/15 00:15:31;;;;;;;4.38;2.08;;;;;;;;;;5113495;28;20031;-74
2023/03/15 00:17:56;;;;;;;5.43;2.00;;;;;;;;;;5113599;28;20028;-74
2023/03/15 00:20:22;;;;;;;4.20;1.90;;;;;;;;;;5113550;28;20406;-74
2023/03/15 00:22:47;;;;;;;6.70;2.72;;;;;;;;;;5112517;28;20106;-74
2023/03/15 00:25:13;;;;;;;4.63;2.10;;;;;;;;;;5113411;28;20035;-74
2023/03/15 00:27:38;;;;;;;3.80;2.25;;;;;;;;;;5113472;28;20034;-74
2023/03/15 00:30:04;;;;;;;5.53;2.15;;;;;;;;;;5113194;28;20399;-74
2023/03/15 00:32:30;;;;;;;4.82;2.10;;;;;;;;;;5113386;28;20038;-74
2023/03/15 00:34:56;;;;;;;4.68;2.25;;;;;;;;;;5113555;28;20425;-74
2023/03/15 00:37:24;;;;;;;6.82;2.28;;;;;;;;;;5113269;28;20036;-74
2023/03/15 00:39:50;;;;;;;5.53;2.47;;;;;;;;;;5111133;28;20035;-74
2023/03/15 00:42:16;;;;;;;5.32;1.85;;;;;;;;;;5112028;28;20028;-74
2023/03/15 00:44:44;;;;;;;7.90;2.47;;;;;;;;;;5113452;28;20022;-74
2023/03/15 00:47:11;;;;;;;7.82;1.70;;;;;;;;;;5111568;28;20061;-74
2023/03/15 00:49:37;;;;;;;11.65;2.40;;;;;;;;;;5112199;28;20027;-74
2023/03/15 00:52:03;;;;;;;8.75;2.47;;;;;;;;;;5113329;28;20024;-74
2023/03/15 00:54:32;;;;;;;4.45;1.90;;;;;;;;;;5112560;28;20058;-75
2023/03/15 00:57:00;;;;;;;7.10;3.13;;;;;;;;;;5113357;28;20028;-74
2023/03/15 00:59:33;;;;;;;6.38;2.60;;;;;;;;;;5111459;28;20024;-74
2023/03/15 01:02:03;;;;;;;6.40;2.25;;;;;;;;;;5112153;28;20027;-74
2023/03/15 01:04:28;;;;;;;6.80;2.17;;;;;;;;;;5112037;28;20040;-74
2023/03/15 01:06:53;;;;;;;3.63;2.10;;;;;;;;;;5113289;28;20100;-74
2023/03/15 01:09:19;;;;;;;4.38;2.03;;;;;;;;;;5114405;28;20092;-74
2023/03/15 01:11:44;;;;;;;11.07;2.92;;;;;;;;;;5116928;27;20441;-74
2023/03/15 01:14:10;;;;;;;4.93;2.60;;;;;;;;;;5115767;28;20036;-74
2023/03/15 01:16:35;;;;;;;8.05;2.35;;;;;;;;;;5116763;28;20054;-74
2023/03/15 01:19:01;;;;;;;3.80;1.85;;;;;;;;;;5116930;28;20435;-74
2023/03/15 01:21:26;;;;;;;5.72;2.20;;;;;;;;;;5116806;28;20034;-74
2023/03/15 01:23:52;;;;;;;7.32;2.22;;;;;;;;;;5116517;28;20031;-74
2023/03/15 01:26:18;;;;;;;2.65;1.42;;;;;;;;;;5115233;28;20085;-74
2023/03/15 01:28:43;;;;;;;5.25;2.17;;;;;;;;;;5116594;28;20467;-74
2023/03/15 01:31:18;;;;;;;7.03;2.38;;;;;;;;;;5116576;28;20031;-74
2023/03/15 01:33:43;;;;;;;5.38;1.75;;;;;;;;;;5115513;28;20185;-73
2023/03/15 01:36:09;;;;;;;6.18;2.03;;;;;;;;;;5116449;28;20530;-74
2023/03/15 01:38:35;;;;;;;10.48;2.47;;;;;;;;;;5114722;28;20489;-74
2023/03/15 01:41:01;;;;;;;7.30;1.60;;;;;;;;;;5116208;28;20082;-74
2023/03/15 01:43:27;;;;;;;4.80;2.38;;;;;;;;;;5116579;28;20027;-74
2023/03/15 01:45:59;;;;;;;3.65;1.70;;;;;;;;;;5114964;28;20046;-74
2023/03/15 01:48:43;;;;;;;5.38;1.95;;;;;;;;;;5101600;28;20039;-74
2023/03/15 01:51:36;;;;;;;1.70;0.90;;;;;;;;;;5116486;28;20044;-74
2023/03/15 01:54:02;;;;;;;2.60;1.23;;;;;;;;;;5105505;28;20506;-73
2023/03/15 01:56:28;;;;;;;3.15;1.60;;;;;;;;;;5115781;28;20046;-73
2023/03/15 01:58:55;;;;;;;3.75;1.70;;;;;;;;;;5114846;28;20034;-73
2023/03/15 02:01:21;;;;;;;8.90;1.65;;;;;;;;;;5114514;28;20057;-74
2023/03/15 02:03:51;;;;;;;4.32;1.70;;;;;;;;;;5115746;28;20063;-73
2023/03/15 02:06:18;;;;;;;3.35;1.52;;;;;;;;;;5114046;28;20031;-73
2023/03/15 02:08:53;;;;;;;4.25;1.30;;;;;;;;;;5115765;28;20066;-73
2023/03/15 02:11:21;;;;;;;5.57;1.45;;;;;;;;;;5110896;28;20031;-73
2023/03/15 02:13:48;;;;;;;3.35;1.58;;;;;;;;;;5115795;28;20039;-73
2023/03/15 02:16:13;;;;;;;3.60;2.17;;;;;;;;;;5112925;28;20061;-73
2023/03/15 02:18:39;;;;;;;2.00;1.08;;;;;;;;;;5114411;28;20459;-73
2023/03/15 02:21:11;;;;;;;2.25;1.10;;;;;;;;;;5113614;28;20039;-73
2023/03/15 02:23:36;;;;;;;5.22;1.42;;;;;;;;;;5113919;28;20410;-73
2023/03/15 02:26:22;;;;;;;6.93;1.50;;;;;;;;;;5097432;28;20020;-73
2023/03/15 02:28:48;;;;;;;2.25;1.02;;;;;;;;;;5115369;28;20044;-73
2023/03/15 02:31:14;;;;;;;2.40;1.17;;;;;;;;;;5114258;28;20036;-73
2023/03/15 02:33:45;;;;;;;8.73;1.38;;;;;;;;;;5115457;28;20024;-73
2023/03/15 02:36:16;;;;;;;1.95;1.17;;;;;;;;;;5080782;28;20369;-73
2023/03/15 02:38:42;;;;;;;2.80;1.25;;;;;;;;;;5115151;28;20047;-74
2023/03/15 02:41:07;;;;;;;2.33;1.13;;;;;;;;;;5114791;28;20024;-73
2023/03/15 02:43:34;;;;;;;4.88;1.08;;;;;;;;;;5115162;28;20050;-73
2023/03/15 02:46:00;;;;;;;1.60;0.90;;;;;;;;;;5114780;28;20114;-74
2023/03/15 02:48:26;;;;;;;1.75;1.05;;;;;;;;;;5106722;28;20030;-74
2023/03/15 02:50:52;;;;;;;4.00;1.30;;;;;;;;;;5112195;28;20035;-74
2023/03/15 02:53:17;;;;;;;9.80;1.20;;;;;;;;;;5114882;28;20043;-74
2023/03/15 02:55:42;;;;;;;5.75;0.82;;;;;;;;;;5112076;28;20031;-74
2023/03/15 02:58:08;;;;;;;4.40;0.85;;;;;;;;;;5114744;28;20043;-73
2023/03/15 03:00:33;;;;;;;2.22;0.82;;;;;;;;;;5114363;28;20043;-73
2023/03/15 03:02:59;;;;;;;4.30;1.13;;;;;;;;;;5114895;28;20039;-74
2023/03/15 03:05:25;;;;;;;1.75;1.00;;;;;;;;;;5114221;28;20043;-73
2023/03/15 03:07:50;;;;;;;2.15;1.00;;;;;;;;;;5114722;27;20112;-73
2023/03/15 03:10:18;;;;;;;5.60;1.27;;;;;;;;;;5113474;28;20019;-73
2023/03/15 03:12:43;;;;;;;2.40;1.10;;;;;;;;;;5114549;28;20035;-73
2023/03/15 03:15:10;;;;;;;1.75;0.93;;;;;;;;;;5111021;28;20042;-74
2023/03/15 03:17:37;;;;;;;2.45;0.85;;;;;;;;;;5113476;28;20571;-73
2023/03/15 03:20:07;;;;;;;1.00;0.75;;;;;;;;;;5114291;27;20479;-73
2023/03/15 03:22:33;;;;;;;2.35;1.00;;;;;;;;;;5113025;28;20036;-73
2023/03/15 03:24:59;;;;;;;1.85;0.85;;;;;;;;;;5114441;28;20078;-73
2023/03/15 03:27:24;;;;;;;3.95;1.52;;;;;;;;;;5114424;28;20475;-73
2023/03/15 03:29:50;;;;;;;3.72;1.23;;;;;;;;;;5114305;28;20044;-73
2023/03/15 03:32:15;;;;;;;3.72;1.25;;;;;;;;;;5113331;28;20038;-73
2023/03/15 03:34:41;;;;;;;6.57;1.00;;;;;;;;;;5114182;28;20046;-73
2023/03/15 03:37:06;;;;;;;4.00;1.17;;;;;;;;;;5114094;28;20039;-73
2023/03/15 03:39:32;;;;;;;1.40;0.77;;;;;;;;;;5114191;28;20028;-73
2023/03/15 03:41:57;;;;;;;1.90;0.85;;;;;;;;;;5114203;28;20043;-73
2023/03/15 03:44:22;;;;;;;1.30;0.82;;;;;;;;;;5102325;28;20039;-73
2023/03/15 03:46:48;;;;;;;1.38;0.80;;;;;;;;;;5111534;28;20158;-73
2023/03/15 03:49:13;;;;;;;1.35;0.80;;;;;;;;;;5114068;28;20035;-74
2023/03/15 03:51:40;;;;;;;1.00;0.63;;;;;;;;;;5109698;28;20483;-73
2023/03/15 03:54:05;;;;;;;1.00;0.77;;;;;;;;;;5113570;28;20047;-73
2023/03/15 03:56:31;;;;;;;0.70;0.50;;;;;;;;;;5113758;28;20039;-73
2023/03/15 03:58:56;;;;;;;2.95;1.40;;;;;;;;;;5112798;28;20084;-73
2023/03/15 04:01:22;;;;;;;2.55;0.77;;;;;;;;;;5113285;28;20032;-73
2023/03/15 04:03:48;;;;;;;1.50;0.77;;;;;;;;;;5112809;28;20077;-73
2023/03/15 04:06:14;;;;;;;0.60;0.60;;;;;;;;;;5110629;28;20394;-73
2023/03/15 04:08:40;;;;;;;0.73;0.60;;;;;;;;;;5114059;28;20098;-73
2023/03/15 04:11:05;;;;;;;1.05;0.70;;;;;;;;;;5113533;28;20039;-73
2023/03/15 04:13:31;;;;;;;1.35;0.73;;;;;;;;;;5112996;28;20040;-73
2023/03/15 04:15:57;;;;;;;2.78;1.35;;;;;;;;;;5112518;28;20031;-73
2023/03/15 04:18:23;;;;;;;7.22;1.25;;;;;;;;;;5113461;28;20042;-73
2023/03/15 04:20:48;;;;;;;2.38;0.80;;;;;;;;;;5112366;28;20096;-73
2023/03/15 04:23:18;;;;;;;1.75;0.88;;;;;;;;;;5113311;28;20372;-73
2023/03/15 04:25:47;;;;;;;1.20;0.63;;;;;;;;;;5113464;28;20118;-73
2023/03/15 04:28:12;;;;;;;2.67;0.95;;;;;;;;;;5095711;28;20378;-73
2023/03/15 04:30:38;;;;;;;1.27;0.60;;;;;;;;;;5113553;28;20027;-73
2023/03/15 04:33:04;;;;;;;3.95;0.90;;;;;;;;;;5113427;28;20444;-73
2023/03/15 04:35:32;;;;;;;3.63;1.15;;;;;;;;;;5113513;28;20869;-73
2023/03/15 04:37:57;;;;;;;1.55;0.80;;;;;;;;;;5113859;28;20051;-73
2023/03/15 04:40:25;;;;;;;0.90;0.80;;;;;;;;;;5112106;28;20476;-74
2023/03/15 04:42:54;;;;;;;2.00;1.08;;;;;;;;;;5112861;28;20046;-73
2023/03/15 04:45:22;;;;;;;2.72;1.15;;;;;;;;;;5114895;28;20027;-73
2023/03/15 04:47:49;;;;;;;1.83;0.80;;;;;;;;;;5114967;28;20050;-73
2023/03/15 04:50:15;;;;;;;1.75;0.88;;;;;;;;;;5116325;28;20062;-73
2023/03/15 04:52:40;;;;;;;1.02;0.70;;;;;;;;;;5116258;28;20463;-73
2023/03/15 04:55:06;;;;;;;1.98;1.10;;;;;;;;;;5116917;28;20483;-73
2023/03/15 04:57:31;;;;;;;1.55;0.90;;;;;;;;;;5117025;28;20163;-73
2023/03/15 04:59:57;;;;;;;2.60;1.17;;;;;;;;;;5117284;28;20026;-73
2023/03/15 05:02:22;;;;;;;0.57;0.57;;;;;;;;;;5117034;28;20440;-74
2023/03/15 05:04:48;;;;;;;3.00;1.23;;;;;;;;;;5117274;28;20471;-73
2023/03/15 05:07:13;;;;;;;1.40;0.70;;;;;;;;;;5117074;28;20423;-73
2023/03/15 05:09:38;;;;;;;2.88;1.33;;;;;;;;;;5116980;28;20077;-73
2023/03/15 05:12:05;;;;;;;1.92;0.90;;;;;;;;;;5115161;28;20044;-73
2023/03/15 05:14:31;;;;;;;1.38;0.90;;;;;;;;;;5115414;28;20024;-73
2023/03/15 05:16:58;;;;;;;1.67;0.77;;;;;;;;;;5114663;28;20050;-73
2023/03/15 05:19:25;;;;;;;2.17;0.95;;;;;;;;;;5112179;28;20384;-73
2023/03/15 05:21:50;;;;;;;3.13;1.10;;;;;;;;;;5116832;28;20031;-73
2023/03/15 05:24:16;;;;;;;3.40;0.77;;;;;;;;;;5115312;28;20043;-73
2023/03/15 05:26:45;;;;;;;1.52;0.80;;;;;;;;;;5116309;28;20048;-73
2023/03/15 05:29:14;;;;;;;2.25;1.40;;;;;;;;;;5103951;28;20031;-73
2023/03/15 05:31:40;;;;;;;8.68;1.42;;;;;;;;;;5114638;28;20048;-73
2023/03/15 05:34:06;;;;;;;0.98;0.77;;;;;;;;;;5115578;28;20044;-73
2023/03/15 05:36:33;;;;;;;2.15;1.00;;;;;;;;;;5114907;28;20058;-73
2023/03/15 05:39:04;;;;;;;1.05;0.85;;;;;;;;;;5112660;28;20035;-73
2023/03/15 05:41:30;;;;;;;1.63;0.65;;;;;;;;;;5115067;28;20032;-73
2023/03/15 05:43:56;;;;;;;1.98;0.88;;;;;;;;;;5115378;28;20085;-73
2023/03/15 05:46:21;;;;;;;1.73;0.60;;;;;;;;;;5114661;28;20039;-74
2023/03/15 05:48:48;;;;;;;2.45;1.30;;;;;;;;;;5105500;28;20118;-73
2023/03/15 05:51:13;;;;;;;1.75;1.08;;;;;;;;;;5116293;28;20027;-73
2023/03/15 05:53:39;;;;;;;2.30;1.00;;;;;;;;;;5116214;27;20052;-73
2023/03/15 05:56:04;;;;;;;1.63;0.90;;;;;;;;;;5111041;28;20051;-73
2023/03/15 05:58:30;;;;;;;1.23;0.80;;;;;;;;;;5115968;28;20023;-73
2023/03/15 06:00:55;;;;;;;1.13;0.73;;;;;;;;;;5116154;28;20092;-73
2023/03/15 06:03:21;;;;;;;3.53;0.95;;;;;;;;;;5116022;28;20126;-73
2023/03/15 06:05:46;;;;;;;1.25;0.70;;;;;;;;;;5115257;28;20163;-73
2023/03/15 06:08:12;;;;;;;1.70;0.90;;;;;;;;;;5115885;28;20040;-73
2023/03/15 06:10:37;;;;;;;8.48;1.00;;;;;;;;;;5115629;28;20035;-73
2023/03/15 06:13:02;;;;;;;7.13;0.82;;;;;;;;;;5115826;28;20038;-73
2023/03/15 06:15:28;;;;;;;2.50;0.80;;;;;;;;;;5115698;28;20039;-73
2023/03/15 06:17:53;;;;;;;3.85;0.88;;;;;;;;;;5112293;28;20059;-73
2023/03/15 06:20:19;;;;;;;2.47;1.00;;;;;;;;;;5112958;28;20733;-73
2023/03/15 06:22:44;;;;;;;0.98;0.63;;;;;;;;;;5115488;28;20089;-73
2023/03/15 06:25:10;;;;;;;1.00;0.70;;;;;;;;;;5115682;28;20031;-73
2023/03/15 06:27:36;;;;;;;2.20;1.13;;;;;;;;;;5112515;28;20038;-73
2023/03/15 06:30:01;;;;;;;1.52;0.93;;;;;;;;;;5112814;28;20040;-73
2023/03/15 06:32:27;;;;;;;1.67;0.80;;;;;;;;;;5115404;28;20495;-73
2023/03/15 06:34:52;;;;;;;1.65;0.95;;;;;;;;;;5113883;28;20102;-73
2023/03/15 06:37:17;;;;;;;1.92;0.80;;;;;;;;;;5115168;28;20114;-73
2023/03/15 06:39:43;;;;;;;3.03;0.63;;;;;;;;;;5115103;28;20039;-73
2023/03/15 06:42:11;;;;;;;1.33;0.80;;;;;;;;;;5115398;28;20031;-73
2023/03/15 06:44:38;;;;;;;2.83;1.27;;;;;;;;;;5113844;28;20031;-73
2023/03/15 06:47:03;;;;;;;3.95;1.25;;;;;;;;;;5108657;28;20040;-73
2023/03/15 06:49:29;;;;;;;1.70;1.20;;;;;;;;;;5113751;28;20038;-73
2023/03/15 06:51:55;;;;;;;2.30;0.95;;;;;;;;;;5114146;28;20039;-73
2023/03/15 06:54:21;;;;;;;2.55;1.17;;;;;;;;;;5113569;28;20158;-73
2023/03/15 06:56:46;;;;;;;0.75;0.60;;;;;;;;;;5115023;28;20535;-73
2023/03/15 06:59:12;;;;;;;1.75;1.15;;;;;;;;;;5114958;28;20037;-73
2023/03/15 07:01:37;;;;;;;1.85;0.90;;;;;;;;;;5114827;28;20045;-73
2023/03/15 07:04:03;;;;;;;1.65;0.93;;;;;;;;;;5114531;28;20066;-73
2023/03/15 07:06:28;;;;;;;2.03;1.20;;;;;;;;;;5114626;28;20032;-73
2023/03/15 07:08:54;;;;;;;2.35;0.90;;;;;;;;;;5114370;28;20043;-73
2023/03/15 07:11:19;;;;;;;1.98;0.88;;;;;;;;;;5114436;27;20083;-73
2023/03/15 07:13:45;;;;;;;2.70;0.90;;;;;;;;;;5113259;28;20100;-73
2023/03/15 07:16:10;;;;;;;4.15;1.02;;;;;;;;;;5114464;28;20036;-73
2023/03/15 07:18:36;;;;;;;2.25;1.00;;;;;;;;;;5114572;28;20055;-73
2023/03/15 07:21:03;;;;;;;1.00;0.60;;;;;;;;;;5112087;28;20043;-73
2023/03/15 07:23:29;;;;;;;5.18;1.20;;;;;;;;;;5085749;28;20067;-73
2023/03/15 07:25:54;;;;;;;2.63;1.20;;;;;;;;;;5110135;28;20106;-73
2023/03/15 07:28:21;;;;;;;3.55;0.85;;;;;;;;;;5114574;28;20127;-73
2023/03/15 07:30:53;;;;;;;10.23;1.02;;;;;;;;;;5114046;28;20481;-73
2023/03/15 07:33:21;;;;;;;2.70;1.17;;;;;;;;;;5114425;28;20027;-73
2023/03/15 07:35:47;;;;;;;3.58;1.42;;;;;;;;;;5112849;28;20417;-73
2023/03/15 07:38:13;;;;;;;7.43;1.67;;;;;;;;;;5114185;28;20031;-73
2023/03/15 07:40:38;;;;;;;4.47;1.40;;;;;;;;;;5114227;28;20023;-73
2023/03/15 07:43:05;;;;;;;2.20;1.23;;;;;;;;;;5112640;28;20120;-73
2023/03/15 07:45:30;;;;;;;3.00;1.00;;;;;;;;;;5113143;28;20475;-73
2023/03/15 07:47:56;;;;;;;4.68;1.30;;;;;;;;;;5100545;28;20081;-73
2023/03/15 07:50:21;;;;;;;3.95;1.20;;;;;;;;;;5113167;28;20035;-73
2023/03/15 07:52:47;;;;;;;6.25;1.25;;;;;;;;;;5113798;28;20032;-73
2023/03/15 07:55:13;;;;;;;6.28;1.33;;;;;;;;;;5113486;27;20085;-73
2023/03/15 07:57:38;;;;;;;3.75;1.30;;;;;;;;;;5112625;28;20044;-73
2023/03/15 08:00:05;;;;;;;4.47;1.10;;;;;;;;;;5113913;28;20105;-73
2023/03/15 08:02:30;;;;;;;2.22;1.00;;;;;;;;;;5112357;28;20019;-73
2023/03/15 08:04:56;;;;;;;6.97;1.60;;;;;;;;;;5114078;28;20061;-73
2023/03/15 08:07:21;;;;;;;2.65;1.20;;;;;;;;;;5113797;28;20084;-73
2023/03/15 08:09:47;;;;;;;4.15;1.15;;;;;;;;;;5113556;28;20069;-73
2023/03/15 08:12:12;;;;;;;3.33;1.08;;;;;;;;;;5112716;28;20032;-73
2023/03/15 08:14:38;;;;;;;3.90;1.20;;;;;;;;;;5113725;28;20044;-73
2023/03/15 08:17:03;;;;;;;9.63;1.45;;;;;;;;;;5113494;28;20067;-73
2023/03/15 08:19:29;;;;;;;2.97;1.30;;;;;;;;;;5113144;28;20039;-73
2023/03/15 08:21:54;;;;;;;4.20;1.42;;;;;;;;;;5111305;28;20046;-73
2023/03/15 08:24:20;;;;;;;2.47;1.10;;;;;;;;;;5111580;28;20035;-73
2023/03/15 08:26:46;;;;;;;5.88;1.65;;;;;;;;;;5112134;28;20048;-73
2023/03/15 08:29:12;;;;;;;3.75;1.35;;;;;;;;;;5113062;28;20039;-73
2023/03/15 08:31:38;;;;;;;6.03;1.20;;;;;;;;;;5113202;28;20049;-73
2023/03/15 08:34:03;;;;;;;4.03;1.48;;;;;;;;;;5113899;28;20047;-73
2023/03/15 08:36:28;;;;;;;6.85;1.58;;;;;;;;;;5113178;28;20042;-73
2023/03/15 08:38:54;;;;;;;3.05;1.35;;;;;;;;;;5113578;28;20028;-73
2023/03/15 08:41:19;;;;;;;4.40;1.33;;;;;;;;;;5113341;28;20039;-73
2023/03/15 08:43:45;;;;;;;2.50;1.40;;;;;;;;;;5113392;28;20048;-73
2023/03/15 08:46:11;;;;;;;4.07;1.55;;;;;;;;;;5111139;28;20047;-73
2023/03/15 08:48:37;;;;;;;3.65;1.50;;;;;;;;;;5108741;28;20031;-73
2023/03/15 08:51:07;;;;;;;3.58;1.50;;;;;;;;;;5113467;28;20036;-73
2023/03/15 08:53:33;;;;;;;3.00;1.50;;;;;;;;;;5111891;28;20159;-73
2023/03/15 08:55:59;;;;;;;6.40;1.48;;;;;;;;;;5109710;28;20421;-73
2023/03/15 08:58:25;;;;;;;6.53;1.50;;;;;;;;;;5113302;28;20123;-73
2023/03/15 09:00:51;;;;;;;4.88;2.40;;;;;;;;;;5113137;28;20497;-73
2023/03/15 09:03:18;;;;;;;3.63;1.73;;;;;;;;;;5112699;28;20042;-73
2023/03/15 09:05:43;;;;;;;5.40;1.63;;;;;;;;;;5103813;28;20057;-73
2023/03/15 09:08:09;;;;;;;5.88;1.73;;;;;;;;;;5113106;28;20043;-73
2023/03/15 09:10:35;;;;;;;6.28;1.60;;;;;;;;;;5112558;28;20036;-74
2023/03/15 09:13:00;;;;;;;5.68;2.33;;;;;;;;;;5108737;28;20047;-74
2023/03/15 09:15:25;;;;;;;5.65;2.20;;;;;;;;;;5113061;28;20471;-74
2023/03/15 09:17:51;;;;;;;5.40;1.70;;;;;;;;;;5112455;28;20382;-74
2023/03/15 09:20:17;;;;;;;7.00;1.75;;;;;;;;;;5113277;28;20116;-73
2023/03/15 09:22:49;;;;;;;3.50;1.10;;;;;;;;;;5111678;28;20029;-74
2023/03/15 09:25:15;;;;;;;4.35;1.20;;;;;;;;;;5111794;28;20036;-74
2023/03/15 09:27:40;;;;;;;2.70;1.02;;;;;;;;;;5112728;28;20534;-74
2023/03/15 09:30:06;;;;;;;3.42;1.40;;;;;;;;;;5113210;28;20475;-74
2023/03/15 09:32:35;;;;;;;2.88;1.25;;;;;;;;;;5116108;28;20046;-73
2023/03/15 09:35:05;;;;;;;3.15;1.38;;;;;;;;;;5116712;28;20042;-74
2023/03/15 09:37:31;;;;;;;3.65;1.35;;;;;;;;;;5116476;28;20122;-74
2023/03/15 09:39:56;;;;;;;2.65;1.17;;;;;;;;;;5115306;28;20127;-74
2023/03/15 09:43:01;;;;;;;4.78;1.33;;;;;;;;;;5116101;28;20028;-74
2023/03/15 09:45:31;;;;;;;3.05;1.15;;;;;;;;;;5114542;28;20036;-74
2023/03/15 09:48:28;;;;;;;2.67;1.30;;;;;;;;;;5113008;28;20387;-74
2023/03/15 09:51:05;;;;;;;7.78;1.85;;;;;;;;;;5105651;28;20122;-74
2023/03/15 09:53:38;;;;;;;3.17;1.77;;;;;;;;;;5114465;28;20100;-74
2023/03/15 09:56:19;;;;;;;4.63;1.60;;;;;;;;;;5114966;28;20035;-74
2023/03/15 09:58:45;;;;;;;2.50;1.55;;;;;;;;;;5107068;28;20495;-74
2023/03/15 10:01:12;;;;;;;5.97;1.60;;;;;;;;;;5115077;28;20044;-74
2023/03/15 10:03:42;;;;;;;3.58;1.70;;;;;;;;;;5114662;28;20023;-74
2023/03/15 10:06:25;;;;;;;4.45;2.30;;;;;;;;;;5115979;28;20498;-74
2023/03/15 10:08:58;;;;;;;4.90;2.15;;;;;;;;;;5114699;28;20064;-74
2023/03/15 10:11:55;;;;;;;5.82;2.10;;;;;;;;;;5101330;28;20456;-74
2023/03/15 10:14:36;;;;;;;6.10;2.58;;;;;;;;;;5111982;28;20043;-74
2023/03/15 10:17:09;;;;;;;6.28;2.85;;;;;;;;;;5115107;27;20502;-74
2023/03/15 10:19:47;;;;;;;6.00;3.38;;;;;;;;;;5102720;28;20109;-74
2023/03/15 10:22:13;;;;;;;7.28;4.25;;;;;;;;;;5114578;28;20039;-74
2023/03/15 10:24:41;;;;;;;10.10;4.35;;;;;;;;;;5115494;28;20103;-74
2023/03/15 10:27:30;;;;;;;10.88;4.32;;;;;;;;;;5115781;28;20030;-74
2023/03/15 10:29:57;;;;;;;7.68;4.35;;;;;;;;;;5068087;28;20547;-74
2023/03/15 10:32:29;;;;;;;12.30;4.53;;;;;;;;;;5103670;28;20043;-74
2023/03/15 10:34:56;;;;;;;8.52;3.78;;;;;;;;;;5111512;28;20059;-74
2023/03/15 10:37:23;;;;;;;8.27;4.00;;;;;;;;;;5115233;28;20486;-74
2023/03/15 10:39:54;;;;;;;7.68;3.78;;;;;;;;;;5114190;28;20030;-74
2023/03/15 10:42:37;;;;;;;12.55;4.75;;;;;;;;;;5113618;28;20035;-73
2023/03/15 10:45:24;;;;;;;15.10;4.82;;;;;;;;;;5105135;28;20032;-74
2023/03/15 10:47:50;;;;;;;11.43;3.50;;;;;;;;;;5111965;28;20108;-74
2023/03/15 10:50:27;;;;;;;6.38;3.08;;;;;;;;;;5115118;28;20042;-74
2023/03/15 10:52:55;;;;;;;9.70;3.38;;;;;;;;;;5113492;28;20502;-74
2023/03/15 10:55:29;;;;;;;9.25;2.88;;;;;;;;;;5113449;28;20483;-74
2023/03/15 10:57:56;;;;;;;8.05;3.72;;;;;;;;;;5105128;28;20395;-74
2023/03/15 11:00:28;;;;;;;8.00;3.00;;;;;;;;;;5113704;28;20067;-75
2023/03/15 11:03:22;;;;;;;5.68;2.90;;;;;;;;;;5113748;28;20046;-74
2023/03/15 11:05:51;;;;;;;7.40;3.20;;;;;;;;;;5114608;28;20395;-74
2023/03/15 11:08:19;;;;;;;8.70;2.80;;;;;;;;;;5113507;28;20043;-74
2023/03/15 11:10:46;;;;;;;8.98;3.47;;;;;;;;;;5114196;28;20118;-74
2023/03/15 11:13:12;;;;;;;5.80;3.10;;;;;;;;;;5113330;28;20035;-74
2023/03/15 11:15:40;;;;;;;7.53;3.53;;;;;;;;;;5114407;28;20042;-74
2023/03/15 11:18:05;;;;;;;9.40;2.92;;;;;;;;;;5114672;28;20027;-74
2023/03/15 11:20:37;;;;;;;9.13;2.70;;;;;;;;;;5114459;28;20494;-74
2023/03/15 11:23:26;;;;;;;8.45;2.90;;;;;;;;;;5111560;28;20482;-74
2023/03/15 11:25:52;;;;;;;5.88;2.90;;;;;;;;;;5110500;28;20078;-74
2023/03/15 11:28:21;;;;;;;10.25;3.17;;;;;;;;;;5111103;28;20051;-74
2023/03/15 11:30:47;;;;;;;6.10;3.10;;;;;;;;;;5112354;28;20490;-74
2023/03/15 11:33:24;;;;;;;6.28;2.65;;;;;;;;;;5113973;28;20050;-74
2023/03/15 11:35:50;;;;;;;4.82;2.53;;;;;;;;;;5092124;28;20097;-75
2023/03/15 11:38:27;;;;;;;6.25;2.72;;;;;;;;;;5113008;28;20467;-74
2023/03/15 11:40:55;;;;;;;6.35;2.58;;;;;;;;;;5113988;28;20039;-74
2023/03/15 11:43:25;;;;;;;8.50;2.97;;;;;;;;;;5113876;28;20071;-74
2023/03/15 11:45:54;;;;;;;7.07;3.85;;;;;;;;;;5109694;28;20039;-74
2023/03/15 11:48:41;;;;;;;7.80;3.25;;;;;;;;;;5107508;28;20040;-74
2023/03/15 11:51:10;;;;;;;6.95;3.30;;;;;;;;;;5095251;28;21354;-74
2023/03/15 11:54:00;;;;;;;4.97;2.63;;;;;;;;;;5111498;28;20411;-74
2023/03/15 11:56:46;;;;;;;6.22;3.03;;;;;;;;;;5112701;28;20075;-74
2023/03/15 11:59:18;;;;;;;7.45;3.38;;;;;;;;;;5112537;28;20039;-74
2023/03/15 12:01:49;;;;;;;8.60;3.28;;;;;;;;;;5112524;28;20172;-74
2023/03/15 12:04:23;;;;;;;8.25;3.03;;;;;;;;;;5112734;28;20046;-74
2023/03/15 12:06:52;;;;;;;7.35;3.20;;;;;;;;;;5113069;28;20031;-74
2023/03/15 12:09:35;;;;;;;7.43;3.35;;;;;;;;;;5110376;28;20032;-74
2023/03/15 12:12:03;;;;;;;4.95;2.67;;;;;;;;;;5113456;28;20039;-74
2023/03/15 12:14:34;;;;;;;8.40;3.17;;;;;;;;;;5109621;28;20054;-74
2023/03/15 12:17:27;;;;;;;6.95;3.00;;;;;;;;;;5110032;28;20031;-74
2023/03/15 12:20:36;;;;;;;5.70;2.65;;;;;;;;;;5107962;28;20483;-74
2023/03/15 12:23:17;;;;;;;6.75;2.58;;;;;;;;;;5113094;28;20067;-74
2023/03/15 12:25:56;;;;;;;9.38;3.28;;;;;;;;;;5113645;28;20043;-74
2023/03/15 12:28:45;;;;;;;11.60;4.40;;;;;;;;;;5100245;28;20028;-75
2023/03/15 12:31:12;;;;;;;9.68;3.20;;;;;;;;;;5111174;28;20038;-74
2023/03/15 12:33:52;;;;;;;11.25;3.28;;;;;;;;;;5113461;28;20110;-74
2023/03/15 12:36:36;;;;;;;7.22;2.90;;;;;;;;;;5094564;28;20093;-75
2023/03/15 12:39:20;;;;;;;7.50;2.92;;;;;;;;;;5084334;28;20129;-74
2023/03/15 12:41:47;;;;;;;9.25;3.10;;;;;;;;;;5112205;28;20169;-75
2023/03/15 12:44:22;;;;;;;8.07;3.45;;;;;;;;;;5112263;28;20063;-75
2023/03/15 12:46:47;;;;;;;4.32;2.63;;;;;;;;;;5110251;28;20058;-75
2023/03/15 12:49:22;;;;;;;5.40;2.85;;;;;;;;;;5106950;28;20031;-74
2023/03/15 12:51:54;;;;;;;9.20;4.05;;;;;;;;;;5113169;28;20096;-74
2023/03/15 12:54:22;;;;;;;7.47;3.33;;;;;;;;;;5109220;28;20131;-74
2023/03/15 12:56:49;;;;;;;9.63;3.42;;;;;;;;;;5111916;28;20024;-74
2023/03/15 12:59:31;;;;;;;6.88;3.20;;;;;;;;;;5112177;28;20047;-74
2023/03/15 13:01:58;;;;;;;6.63;2.90;;;;;;;;;;5112060;28;20028;-74
2023/03/15 13:04:26;;;;;;;7.28;3.08;;;;;;;;;;5111945;28;20051;-74
2023/03/15 13:06:57;;;;;;;9.63;4.15;;;;;;;;;;5115914;28;20134;-75
2023/03/15 13:09:33;;;;;;;5.80;2.53;;;;;;;;;;5115982;28;20055;-75
2023/03/15 13:12:15;;;;;;;6.13;2.38;;;;;;;;;;5113245;28;20047;-75
2023/03/15 13:14:50;;;;;;;7.25;3.17;;;;;;;;;;5116666;28;20384;-75
2023/03/15 13:17:34;;;;;;;6.47;2.40;;;;;;;;;;5096477;28;20036;-75
2023/03/15 13:20:22;;;;;;;11.45;2.90;;;;;;;;;;5112131;28;20039;-75
2023/03/15 13:23:15;;;;;;;7.75;2.72;;;;;;;;;;5115585;28;20043;-75
2023/03/15 13:25:41;;;;;;;6.63;2.17;;;;;;;;;;5115538;28;20030;-75
2023/03/15 13:28:41;;;;;;;7.00;2.22;;;;;;;;;;5116837;28;20406;-75
2023/03/15 13:31:21;;;;;;;6.55;1.60;;;;;;;;;;5097790;28;20375;-75
2023/03/15 13:33:48;;;;;;;7.43;2.55;;;;;;;;;;5115432;28;20043;-75
2023/03/15 13:36:19;;;;;;;6.10;2.58;;;;;;;;;;5115281;28;20069;-75
2023/03/15 13:38:47;;;;;;;4.05;1.90;;;;;;;;;;5115239;28;20050;-75
2023/03/15 13:41:30;;;;;;;6.10;2.58;;;;;;;;;;5115313;28;20040;-75
2023/03/15 13:43:59;;;;;;;11.90;3.92;;;;;;;;;;5114844;28;20403;-75
2023/03/15 13:46:28;;;;;;;9.45;3.17;;;;;;;;;;5115214;28;20039;-75
2023/03/15 13:48:55;;;;;;;8.68;3.20;;;;;;;;;;5112406;28;20109;-75
2023/03/15 13:51:25;;;;;;;13.90;3.53;;;;;;;;;;5113904;27;20027;-75
2023/03/15 13:53:54;;;;;;;8.98;2.58;;;;;;;;;;5113020;28;20070;-74
2023/03/15 13:56:28;;;;;;;5.85;2.20;;;;;;;;;;5115144;28;20035;-75
2023/03/15 13:58:53;;;;;;;7.38;1.85;;;;;;;;;;5112578;28;20531;-75
2023/03/15 14:01:21;;;;;;;8.40;1.90;;;;;;;;;;5114222;28;20119;-75
2023/03/15 14:04:00;;;;;;;5.53;2.17;;;;;;;;;;5113212;28;20028;-75
2023/03/15 14:06:26;;;;;;;6.22;1.95;;;;;;;;;;5114651;28;20464;-75
2023/03/15 14:08:54;;;;;;;7.82;1.92;;;;;;;;;;5114733;28;20051;-75
2023/03/15 14:11:33;;;;;;;7.80;2.53;;;;;;;;;;5114397;28;20127;-75
2023/03/15 14:14:03;;;;;;;10.05;2.97;;;;;;;;;;5114860;28;20044;-75
2023/03/15 14:16:46;;;;;;;7.78;2.53;;;;;;;;;;5113609;28;20042;-75
2023/03/15 14:19:25;;;;;;;10.02;2.50;;;;;;;;;;5114850;28;20051;-75
2023/03/15 14:21:52;;;;;;;4.68;2.60;;;;;;;;;;5114392;28;20042;-75
2023/03/15 14:24:25;;;;;;;9.27;2.65;;;;;;;;;;5115501;28;20447;-75
2023/03/15 14:26:56;;;;;;;7.82;1.90;;;;;;;;;;5115483;28;20051;-75
2023/03/15 14:29:30;;;;;;;6.90;2.15;;;;;;;;;;5114495;28;20067;-75
2023/03/15 14:32:06;;;;;;;;;;;;;;;;;;5115807;28;20032;-75
2023/03/15 14:34:45;;;;;;;7.28;2.30;;;;;;;;;;5115373;28;19927;-75
2023/03/15 14:37:38;;;;;;;4.57;1.20;;;;;;;;;;5114283;28;20043;-75
2023/03/15 14:40:27;;;;;;;3.25;1.30;;;;;;;;;;5112770;28;20556;-75
2023/03/15 14:42:53;;;;;;;3.70;1.48;;;;;;;;;;5115328;28;20040;-75
2023/03/15 14:45:20;;;;;;;4.03;1.17;;;;;;;;;;5114387;28;20440;-75
2023/03/15 14:48:13;;;;;;;3.78;1.10;;;;;;;;;;5113758;28;20479;-75
2023/03/15 14:50:41;;;;;;;3.67;1.20;;;;;;;;;;5118346;27;20484;-75
2023/03/15 14:53:08;;;;;;;4.25;1.30;;;;;;;;;;5111420;28;20036;-75
2023/03/15 14:55:35;;;;;;;4.82;1.08;;;;;;;;;;5114306;28;20031;-75